<?xml version="1.0" encoding="UTF-8" standalone="no" ?>
<gpx xmlns="http://www.topografix.com/GPX/1/1" xmlns:xsi="http://www.w3.org/2001/XMLSchema-instance" xsi:schemaLocation="http://www.topografix.com/GPX/1/1 http://www.topografix.com/GPX/1/1/gpx.xsd" version="1.1" creator="VisuGPX - https://www.visugpx.com">
  <metadata>
    <name>Edirne-Sarajevo</name>
  </metadata>
  <trk>
    <name><![CDATA[Tour d'Europe: étape 665]]></name>
    <extensions>
      <line xmlns="http://www.topografix.com/GPX/gpx_style/0/2">
        <color>FF00FF</color>
        <width>4</width>
      </line>
    </extensions>
    <trkseg>
      <trkpt lat="41.97965" lon="20.96911">
        <ele>487.194285</ele>
        <time>2022-04-24T09:28:05.712Z</time>
      </trkpt>
      <trkpt lat="41.97859" lon="20.96925">
        <ele>486.592092</ele>
        <time>2022-04-24T09:30:11.706Z</time>
      </trkpt>
      <trkpt lat="41.97651" lon="20.97038">
        <ele>482.313076</ele>
        <time>2022-04-24T09:30:53.716Z</time>
      </trkpt>
      <trkpt lat="41.97453" lon="20.97175">
        <ele>480.145066</ele>
        <time>2022-04-24T09:31:35.751Z</time>
      </trkpt>
      <trkpt lat="41.97273" lon="20.97321">
        <ele>480.435567</ele>
        <time>2022-04-24T09:32:15.721Z</time>
      </trkpt>
      <trkpt lat="41.97137" lon="20.97555">
        <ele>479.53169</ele>
        <time>2022-04-24T09:32:57.709Z</time>
      </trkpt>
      <trkpt lat="41.96994" lon="20.97808">
        <ele>479.012247</ele>
        <time>2022-04-24T09:33:45.702Z</time>
      </trkpt>
      <trkpt lat="41.96804" lon="20.97975">
        <ele>479.567557</ele>
        <time>2022-04-24T09:34:25.718Z</time>
      </trkpt>
      <trkpt lat="41.96599" lon="20.98111">
        <ele>479.537555</ele>
        <time>2022-04-24T09:36:23.713Z</time>
      </trkpt>
      <trkpt lat="41.96376" lon="20.98114">
        <ele>481.689446</ele>
        <time>2022-04-24T09:37:12.712Z</time>
      </trkpt>
      <trkpt lat="41.96176" lon="20.98041">
        <ele>479.256319</ele>
        <time>2022-04-24T09:37:52.729Z</time>
      </trkpt>
      <trkpt lat="41.95966" lon="20.98051">
        <ele>478.07235</ele>
        <time>2022-04-24T09:38:36.699Z</time>
      </trkpt>
      <trkpt lat="41.9575" lon="20.98126">
        <ele>474.778038</ele>
        <time>2022-04-24T09:39:19.703Z</time>
      </trkpt>
      <trkpt lat="41.95543" lon="20.98193">
        <ele>473.687644</ele>
        <time>2022-04-24T09:40:03.718Z</time>
      </trkpt>
      <trkpt lat="41.95339" lon="20.98262">
        <ele>473.956728</ele>
        <time>2022-04-24T09:40:45.708Z</time>
      </trkpt>
      <trkpt lat="41.95148" lon="20.98327">
        <ele>474.489088</ele>
        <time>2022-04-24T09:41:25.719Z</time>
      </trkpt>
      <trkpt lat="41.9495" lon="20.98393">
        <ele>474.603392</ele>
        <time>2022-04-24T09:42:07.711Z</time>
      </trkpt>
      <trkpt lat="41.94749" lon="20.9846">
        <ele>475.627226</ele>
        <time>2022-04-24T09:42:50.707Z</time>
      </trkpt>
      <trkpt lat="41.94554" lon="20.98426">
        <ele>477.378818</ele>
        <time>2022-04-24T09:43:33.725Z</time>
      </trkpt>
      <trkpt lat="41.9435" lon="20.98349">
        <ele>478.529739</ele>
        <time>2022-04-24T09:44:15.723Z</time>
      </trkpt>
      <trkpt lat="41.94154" lon="20.98276">
        <ele>480.136041</ele>
        <time>2022-04-24T09:44:57.745Z</time>
      </trkpt>
      <trkpt lat="41.93965" lon="20.98205">
        <ele>480.804126</ele>
        <time>2022-04-24T09:45:39.727Z</time>
      </trkpt>
      <trkpt lat="41.93762" lon="20.98126">
        <ele>482.448982</ele>
        <time>2022-04-24T09:46:22.711Z</time>
      </trkpt>
      <trkpt lat="41.93557" lon="20.98047">
        <ele>481.815897</ele>
        <time>2022-04-24T09:47:06.710Z</time>
      </trkpt>
      <trkpt lat="41.93356" lon="20.97972">
        <ele>481.965975</ele>
        <time>2022-04-24T09:47:48.694Z</time>
      </trkpt>
      <trkpt lat="41.9314" lon="20.97891">
        <ele>482.88815</ele>
        <time>2022-04-24T09:48:36.703Z</time>
      </trkpt>
      <trkpt lat="41.92937" lon="20.97815">
        <ele>483.939485</ele>
        <time>2022-04-24T09:49:21.709Z</time>
      </trkpt>
      <trkpt lat="41.92737" lon="20.97738">
        <ele>486.101265</ele>
        <time>2022-04-24T09:50:06.720Z</time>
      </trkpt>
      <trkpt lat="41.92529" lon="20.97656">
        <ele>486.563422</ele>
        <time>2022-04-24T09:50:49.712Z</time>
      </trkpt>
      <trkpt lat="41.92322" lon="20.97575">
        <ele>486.622034</ele>
        <time>2022-04-24T09:51:31.727Z</time>
      </trkpt>
      <trkpt lat="41.92133" lon="20.97501">
        <ele>488.12399</ele>
        <time>2022-04-24T09:52:11.709Z</time>
      </trkpt>
      <trkpt lat="41.91934" lon="20.97423">
        <ele>488.93192</ele>
        <time>2022-04-24T09:52:54.704Z</time>
      </trkpt>
      <trkpt lat="41.91702" lon="20.97337">
        <ele>490.500803</ele>
        <time>2022-04-24T09:55:09.709Z</time>
      </trkpt>
      <trkpt lat="41.91495" lon="20.97257">
        <ele>491.410446</ele>
        <time>2022-04-24T09:55:58.722Z</time>
      </trkpt>
      <trkpt lat="41.91288" lon="20.97181">
        <ele>491.658821</ele>
        <time>2022-04-24T09:56:44.710Z</time>
      </trkpt>
      <trkpt lat="41.91144" lon="20.96966">
        <ele>493.481369</ele>
        <time>2022-04-24T09:57:34.705Z</time>
      </trkpt>
      <trkpt lat="41.90976" lon="20.96735">
        <ele>494.368583</ele>
        <time>2022-04-24T09:58:31.707Z</time>
      </trkpt>
      <trkpt lat="41.90803" lon="20.96532">
        <ele>500.604731</ele>
        <time>2022-04-24T09:59:26.735Z</time>
      </trkpt>
      <trkpt lat="41.90622" lon="20.9634">
        <ele>502.199677</ele>
        <time>2022-04-24T10:00:18.720Z</time>
      </trkpt>
      <trkpt lat="41.90428" lon="20.96281">
        <ele>499.657577</ele>
        <time>2022-04-24T10:01:00.702Z</time>
      </trkpt>
      <trkpt lat="41.90209" lon="20.96359">
        <ele>501.414668</ele>
        <time>2022-04-24T10:01:52.715Z</time>
      </trkpt>
      <trkpt lat="41.90014" lon="20.9652">
        <ele>498.998009</ele>
        <time>2022-04-24T10:02:38.715Z</time>
      </trkpt>
      <trkpt lat="41.89817" lon="20.96694">
        <ele>500.061561</ele>
        <time>2022-04-24T10:03:33.713Z</time>
      </trkpt>
      <trkpt lat="41.89591" lon="20.96804">
        <ele>502.643949</ele>
        <time>2022-04-24T10:04:28.724Z</time>
      </trkpt>
      <trkpt lat="41.89347" lon="20.96884">
        <ele>503.726307</ele>
        <time>2022-04-24T10:05:28.731Z</time>
      </trkpt>
      <trkpt lat="41.89148" lon="20.9701">
        <ele>503.172095</ele>
        <time>2022-04-24T10:06:17.718Z</time>
      </trkpt>
      <trkpt lat="41.88969" lon="20.97155">
        <ele>503.722138</ele>
        <time>2022-04-24T10:07:02.736Z</time>
      </trkpt>
      <trkpt lat="41.88774" lon="20.97215">
        <ele>504.847423</ele>
        <time>2022-04-24T10:07:42.707Z</time>
      </trkpt>
      <trkpt lat="41.8857" lon="20.97254">
        <ele>505.870393</ele>
        <time>2022-04-24T10:08:24.730Z</time>
      </trkpt>
      <trkpt lat="41.88373" lon="20.97332">
        <ele>507.686543</ele>
        <time>2022-04-24T10:09:06.714Z</time>
      </trkpt>
      <trkpt lat="41.88182" lon="20.97407">
        <ele>507.658131</ele>
        <time>2022-04-24T10:09:47.705Z</time>
      </trkpt>
      <trkpt lat="41.87975" lon="20.97478">
        <ele>507.163445</ele>
        <time>2022-04-24T10:10:29.725Z</time>
      </trkpt>
      <trkpt lat="41.87759" lon="20.97498">
        <ele>508.71836</ele>
        <time>2022-04-24T10:11:14.729Z</time>
      </trkpt>
      <trkpt lat="41.8757" lon="20.97558">
        <ele>509.375994</ele>
        <time>2022-04-24T10:11:54.714Z</time>
      </trkpt>
      <trkpt lat="41.87417" lon="20.97751">
        <ele>508.512829</ele>
        <time>2022-04-24T10:12:36.711Z</time>
      </trkpt>
      <trkpt lat="41.872" lon="20.97801">
        <ele>508.624714</ele>
        <time>2022-04-24T10:13:20.709Z</time>
      </trkpt>
      <trkpt lat="41.86993" lon="20.97828">
        <ele>509.053469</ele>
        <time>2022-04-24T10:14:04.698Z</time>
      </trkpt>
      <trkpt lat="41.86811" lon="20.98009">
        <ele>510.681729</ele>
        <time>2022-04-24T10:14:46.713Z</time>
      </trkpt>
      <trkpt lat="41.86877" lon="20.98263">
        <ele>509.97268</ele>
        <time>2022-04-24T10:15:29.694Z</time>
      </trkpt>
      <trkpt lat="41.86824" lon="20.98524">
        <ele>511.468603</ele>
        <time>2022-04-24T10:16:12.707Z</time>
      </trkpt>
      <trkpt lat="41.86685" lon="20.98695">
        <ele>515.030176</ele>
        <time>2022-04-24T10:17:15.731Z</time>
      </trkpt>
      <trkpt lat="41.86471" lon="20.98657">
        <ele>518.260087</ele>
        <time>2022-04-24T10:18:08.698Z</time>
      </trkpt>
      <trkpt lat="41.86279" lon="20.98523">
        <ele>522.003056</ele>
        <time>2022-04-24T10:19:23.719Z</time>
      </trkpt>
      <trkpt lat="41.86085" lon="20.98398">
        <ele>524.280195</ele>
        <time>2022-04-24T10:20:32.705Z</time>
      </trkpt>
      <trkpt lat="41.85877" lon="20.98278">
        <ele>522.863174</ele>
        <time>2022-04-24T10:21:31.711Z</time>
      </trkpt>
      <trkpt lat="41.85682" lon="20.98193">
        <ele>521.626829</ele>
        <time>2022-04-24T10:22:11.698Z</time>
      </trkpt>
      <trkpt lat="41.85434" lon="20.98118">
        <ele>519.864932</ele>
        <time>2022-04-24T10:22:53.715Z</time>
      </trkpt>
      <trkpt lat="41.85217" lon="20.98103">
        <ele>524.280845</ele>
        <time>2022-04-24T10:23:55.778Z</time>
      </trkpt>
      <trkpt lat="41.85014" lon="20.98091">
        <ele>531.580317</ele>
        <time>2022-04-24T10:25:09.713Z</time>
      </trkpt>
      <trkpt lat="41.848" lon="20.98015">
        <ele>538.826979</ele>
        <time>2022-04-24T10:26:06.726Z</time>
      </trkpt>
      <trkpt lat="41.84573" lon="20.97922">
        <ele>540.258569</ele>
        <time>2022-04-24T10:27:04.740Z</time>
      </trkpt>
      <trkpt lat="41.8438" lon="20.97767">
        <ele>538.689278</ele>
        <time>2022-04-24T10:27:46.696Z</time>
      </trkpt>
      <trkpt lat="41.841" lon="20.97699">
        <ele>531.259122</ele>
        <time>2022-04-24T10:28:28.736Z</time>
      </trkpt>
      <trkpt lat="41.8391" lon="20.97593">
        <ele>538.977165</ele>
        <time>2022-04-24T10:29:42.698Z</time>
      </trkpt>
      <trkpt lat="41.83735" lon="20.97363">
        <ele>541.33276</ele>
        <time>2022-04-24T10:32:29.801Z</time>
      </trkpt>
      <trkpt lat="41.83605" lon="20.97121">
        <ele>549.467542</ele>
        <time>2022-04-24T10:33:49.703Z</time>
      </trkpt>
      <trkpt lat="41.83442" lon="20.96955">
        <ele>548.879028</ele>
        <time>2022-04-24T10:34:56.703Z</time>
      </trkpt>
      <trkpt lat="41.83227" lon="20.96799">
        <ele>546.452871</ele>
        <time>2022-04-24T10:35:54.697Z</time>
      </trkpt>
      <trkpt lat="41.82993" lon="20.96664">
        <ele>543.565334</ele>
        <time>2022-04-24T10:36:55.704Z</time>
      </trkpt>
      <trkpt lat="41.82784" lon="20.96547">
        <ele>543.963708</ele>
        <time>2022-04-24T10:37:55.714Z</time>
      </trkpt>
      <trkpt lat="41.82568" lon="20.96438">
        <ele>542.756878</ele>
        <time>2022-04-24T10:38:50.707Z</time>
      </trkpt>
      <trkpt lat="41.82355" lon="20.96332">
        <ele>544.93023</ele>
        <time>2022-04-24T10:39:32.718Z</time>
      </trkpt>
      <trkpt lat="41.82363" lon="20.96033">
        <ele>538.845181</ele>
        <time>2022-04-24T10:40:19.736Z</time>
      </trkpt>
      <trkpt lat="41.82218" lon="20.95818">
        <ele>539.286637</ele>
        <time>2022-04-24T10:41:12.704Z</time>
      </trkpt>
      <trkpt lat="41.82035" lon="20.95602">
        <ele>540.627404</ele>
        <time>2022-04-24T10:42:11.813Z</time>
      </trkpt>
      <trkpt lat="41.81903" lon="20.95358">
        <ele>536.595747</ele>
        <time>2022-04-24T10:43:07.688Z</time>
      </trkpt>
      <trkpt lat="41.81914" lon="20.95049">
        <ele>533.747115</ele>
        <time>2022-04-24T10:44:02.679Z</time>
      </trkpt>
      <trkpt lat="41.81904" lon="20.94758">
        <ele>533.358614</ele>
        <time>2022-04-24T10:44:50.682Z</time>
      </trkpt>
      <trkpt lat="41.81865" lon="20.94478">
        <ele>531.299881</ele>
        <time>2022-04-24T10:45:37.694Z</time>
      </trkpt>
      <trkpt lat="41.81687" lon="20.94304">
        <ele>534.805806</ele>
        <time>2022-04-24T10:46:33.697Z</time>
      </trkpt>
      <trkpt lat="41.81566" lon="20.94053">
        <ele>537.046405</ele>
        <time>2022-04-24T10:47:36.701Z</time>
      </trkpt>
      <trkpt lat="41.81463" lon="20.93801">
        <ele>540.421472</ele>
        <time>2022-04-24T10:48:36.695Z</time>
      </trkpt>
      <trkpt lat="41.81233" lon="20.93684">
        <ele>544.062227</ele>
        <time>2022-04-24T10:49:39.685Z</time>
      </trkpt>
      <trkpt lat="41.81004" lon="20.93581">
        <ele>546.756821</ele>
        <time>2022-04-24T10:50:42.692Z</time>
      </trkpt>
      <trkpt lat="41.80798" lon="20.93473">
        <ele>554.698319</ele>
        <time>2022-04-24T10:51:42.692Z</time>
      </trkpt>
      <trkpt lat="41.80605" lon="20.93293">
        <ele>558.574248</ele>
        <time>2022-04-24T10:52:45.678Z</time>
      </trkpt>
      <trkpt lat="41.80412" lon="20.93112">
        <ele>558.768186</ele>
        <time>2022-04-24T10:53:48.676Z</time>
      </trkpt>
      <trkpt lat="41.80291" lon="20.92867">
        <ele>559.627521</ele>
        <time>2022-04-24T10:54:48.678Z</time>
      </trkpt>
      <trkpt lat="41.80213" lon="20.92583">
        <ele>556.815255</ele>
        <time>2022-04-24T10:55:51.687Z</time>
      </trkpt>
      <trkpt lat="41.80159" lon="20.92305">
        <ele>563.320453</ele>
        <time>2022-04-24T10:57:03.694Z</time>
      </trkpt>
      <trkpt lat="41.80234" lon="20.92029">
        <ele>562.907294</ele>
        <time>2022-04-24T10:57:53.689Z</time>
      </trkpt>
      <trkpt lat="41.80212" lon="20.91722">
        <ele>567.960441</ele>
        <time>2022-04-24T10:58:57.682Z</time>
      </trkpt>
      <trkpt lat="41.80033" lon="20.91665">
        <ele>563.689959</ele>
        <time>2022-04-24T11:00:00.693Z</time>
      </trkpt>
      <trkpt lat="41.79848" lon="20.91607">
        <ele>571.339402</ele>
        <time>2022-04-24T11:01:23.727Z</time>
      </trkpt>
      <trkpt lat="41.79672" lon="20.91538">
        <ele>575.701066</ele>
        <time>2022-04-24T11:02:39.682Z</time>
      </trkpt>
      <trkpt lat="41.79584" lon="20.91391">
        <ele>578.032777</ele>
        <time>2022-04-24T11:08:00.735Z</time>
      </trkpt>
      <trkpt lat="41.79613" lon="20.91232">
        <ele>579.858873</ele>
        <time>2022-04-24T11:09:22.705Z</time>
      </trkpt>
      <trkpt lat="41.79423" lon="20.91089">
        <ele>586.040392</ele>
        <time>2022-04-24T11:12:27.690Z</time>
      </trkpt>
      <trkpt lat="41.79355" lon="20.91072">
        <ele>582.820214</ele>
        <time>2022-04-24T11:20:49.758Z</time>
      </trkpt>
      <trkpt lat="41.79259" lon="20.90944">
        <ele>579.850196</ele>
        <time>2022-04-24T12:14:25.691Z</time>
      </trkpt>
      <trkpt lat="41.79047" lon="20.90846">
        <ele>575.367566</ele>
        <time>2022-04-24T12:25:19.686Z</time>
      </trkpt>
      <trkpt lat="41.78999" lon="20.90668">
        <ele>575.638051</ele>
        <time>2022-04-24T12:29:16.685Z</time>
      </trkpt>
      <trkpt lat="41.79033" lon="20.90614">
        <ele>574.395792</ele>
        <time>2022-04-24T13:17:52.671Z</time>
      </trkpt>
      <trkpt lat="41.7893" lon="20.90806">
        <ele>574.28898</ele>
        <time>2022-04-24T13:25:13.669Z</time>
      </trkpt>
      <trkpt lat="41.78896" lon="20.90824">
        <ele>575.149017</ele>
        <time>2022-04-24T13:49:34.720Z</time>
      </trkpt>
    </trkseg>
  </trk>
</gpx>